sensor_id;sensor_type;location;lat;lon;timestamp;P1;durP1;ratioP1;P2;durP2;ratioP2
29812;SDS011;16707;48.106;11.548;2023-04-19T00:01:48;12.75;;;7.85;;
29812;SDS011;16707;48.106;11.548;2023-04-19T00:04:15;12.52;;;7.72;;
29812;SDS011;16707;48.106;11.548;2023-04-19T00:06:43;12.93;;;7.75;;
29812;SDS011;16707;48.106;11.548;2023-04-19T00:09:10;10.98;;;7.88;;
29812;SDS011;16707;48.106;11.548;2023-04-19T00:11:39;12.90;;;8.15;;
29812;SDS011;16707;48.106;11.548;2023-04-19T00:14:09;13.23;;;7.32;;
29812;SDS011;16707;48.106;11.548;2023-04-19T00:16:36;13.85;;;7.95;;
29812;SDS011;16707;48.106;11.548;2023-04-19T00:19:05;14.10;;;9.50;;
29812;SDS011;16707;48.106;11.548;2023-04-19T00:21:33;14.00;;;8.07;;
29812;SDS011;16707;48.106;11.548;2023-04-19T00:24:00;14.95;;;8.75;;
29812;SDS011;16707;48.106;11.548;2023-04-19T00:26:40;12.80;;;8.35;;
29812;SDS011;16707;48.106;11.548;2023-04-19T00:29:07;12.05;;;7.78;;
29812;SDS011;16707;48.106;11.548;2023-04-19T00:31:35;12.30;;;8.15;;
29812;SDS011;16707;48.106;11.548;2023-04-19T00:34:04;12.85;;;9.00;;
29812;SDS011;16707;48.106;11.548;2023-04-19T00:36:31;11.45;;;7.38;;
29812;SDS011;16707;48.106;11.548;2023-04-19T00:38:58;12.93;;;8.25;;
29812;SDS011;16707;48.106;11.548;2023-04-19T00:41:31;11.30;;;7.27;;
29812;SDS011;16707;48.106;11.548;2023-04-19T00:44:00;13.68;;;8.50;;
29812;SDS011;16707;48.106;11.548;2023-04-19T00:46:27;12.63;;;8.52;;
29812;SDS011;16707;48.106;11.548;2023-04-19T00:48:54;14.52;;;8.85;;
29812;SDS011;16707;48.106;11.548;2023-04-19T00:51:24;13.48;;;8.63;;
29812;SDS011;16707;48.106;11.548;2023-04-19T00:53:52;11.00;;;8.02;;
29812;SDS011;16707;48.106;11.548;2023-04-19T00:56:22;15.05;;;8.25;;
29812;SDS011;16707;48.106;11.548;2023-04-19T00:58:54;12.95;;;7.50;;
29812;SDS011;16707;48.106;11.548;2023-04-19T01:01:30;11.95;;;8.30;;
29812;SDS011;16707;48.106;11.548;2023-04-19T01:04:04;14.85;;;8.55;;
29812;SDS011;16707;48.106;11.548;2023-04-19T01:06:38;18.63;;;8.93;;
29812;SDS011;16707;48.106;11.548;2023-04-19T01:09:23;11.73;;;7.82;;
29812;SDS011;16707;48.106;11.548;2023-04-19T01:11:53;14.02;;;8.25;;
29812;SDS011;16707;48.106;11.548;2023-04-19T01:16:56;15.88;;;8.93;;
29812;SDS011;16707;48.106;11.548;2023-04-19T01:19:33;12.68;;;8.70;;
29812;SDS011;16707;48.106;11.548;2023-04-19T02:50:50;24.08;;;13.43;;
29812;SDS011;16707;48.106;11.548;2023-04-19T02:53:49;19.35;;;11.50;;
29812;SDS011;16707;48.106;11.548;2023-04-19T02:56:35;19.83;;;12.15;;
29812;SDS011;16707;48.106;11.548;2023-04-19T02:59:19;23.10;;;12.50;;
29812;SDS011;16707;48.106;11.548;2023-04-19T03:01:52;25.27;;;13.50;;
29812;SDS011;16707;48.106;11.548;2023-04-19T03:04:32;23.50;;;14.32;;
29812;SDS011;16707;48.106;11.548;2023-04-19T03:07:00;21.70;;;13.70;;
29812;SDS011;16707;48.106;11.548;2023-04-19T03:09:34;21.90;;;12.60;;
29812;SDS011;16707;48.106;11.548;2023-04-19T03:12:05;22.45;;;12.57;;
29812;SDS011;16707;48.106;11.548;2023-04-19T03:14:33;25.35;;;14.43;;
29812;SDS011;16707;48.106;11.548;2023-04-19T03:17:19;25.00;;;13.98;;
29812;SDS011;16707;48.106;11.548;2023-04-19T03:19:50;24.08;;;14.57;;
29812;SDS011;16707;48.106;11.548;2023-04-19T03:22:20;25.85;;;14.35;;
29812;SDS011;16707;48.106;11.548;2023-04-19T03:24:58;25.77;;;15.70;;
29812;SDS011;16707;48.106;11.548;2023-04-19T03:27:33;28.20;;;16.00;;
29812;SDS011;16707;48.106;11.548;2023-04-19T03:30:10;25.50;;;14.80;;
29812;SDS011;16707;48.106;11.548;2023-04-19T03:32:39;28.63;;;15.80;;
29812;SDS011;16707;48.106;11.548;2023-04-19T03:35:08;25.95;;;14.88;;
29812;SDS011;16707;48.106;11.548;2023-04-19T03:37:40;29.55;;;16.70;;
29812;SDS011;16707;48.106;11.548;2023-04-19T03:40:11;29.17;;;16.45;;
29812;SDS011;16707;48.106;11.548;2023-04-19T03:42:42;30.85;;;16.45;;
29812;SDS011;16707;48.106;11.548;2023-04-19T03:45:17;29.65;;;16.60;;
29812;SDS011;16707;48.106;11.548;2023-04-19T03:47:47;31.65;;;17.63;;
29812;SDS011;16707;48.106;11.548;2023-04-19T03:50:22;32.30;;;17.83;;
29812;SDS011;16707;48.106;11.548;2023-04-19T03:52:50;30.60;;;17.35;;
29812;SDS011;16707;48.106;11.548;2023-04-19T03:55:21;34.58;;;19.52;;
29812;SDS011;16707;48.106;11.548;2023-04-19T03:57:49;29.80;;;16.88;;
29812;SDS011;16707;48.106;11.548;2023-04-19T04:00:16;33.15;;;17.38;;
29812;SDS011;16707;48.106;11.548;2023-04-19T04:02:45;29.73;;;17.80;;
29812;SDS011;16707;48.106;11.548;2023-04-19T04:05:14;32.03;;;18.23;;
29812;SDS011;16707;48.106;11.548;2023-04-19T04:07:52;30.75;;;18.70;;
29812;SDS011;16707;48.106;11.548;2023-04-19T04:10:28;31.80;;;18.35;;
29812;SDS011;16707;48.106;11.548;2023-04-19T04:13:00;31.55;;;18.90;;
29812;SDS011;16707;48.106;11.548;2023-04-19T04:15:27;29.13;;;15.95;;
29812;SDS011;16707;48.106;11.548;2023-04-19T04:18:03;28.83;;;16.45;;
29812;SDS011;16707;48.106;11.548;2023-04-19T04:20:33;32.85;;;17.85;;
29812;SDS011;16707;48.106;11.548;2023-04-19T04:23:00;31.65;;;17.92;;
29812;SDS011;16707;48.106;11.548;2023-04-19T04:28:05;28.58;;;16.85;;
29812;SDS011;16707;48.106;11.548;2023-04-19T04:30:38;34.67;;;18.88;;
29812;SDS011;16707;48.106;11.548;2023-04-19T04:33:11;35.33;;;18.85;;
29812;SDS011;16707;48.106;11.548;2023-04-19T04:35:39;31.83;;;19.08;;
29812;SDS011;16707;48.106;11.548;2023-04-19T04:38:14;30.67;;;17.67;;
29812;SDS011;16707;48.106;11.548;2023-04-19T04:40:51;31.25;;;18.05;;
29812;SDS011;16707;48.106;11.548;2023-04-19T04:43:24;28.60;;;17.42;;
29812;SDS011;16707;48.106;11.548;2023-04-19T04:45:56;35.05;;;19.45;;
29812;SDS011;16707;48.106;11.548;2023-04-19T04:48:26;32.40;;;17.88;;
29812;SDS011;16707;48.106;11.548;2023-04-19T04:51:02;35.17;;;19.10;;
29812;SDS011;16707;48.106;11.548;2023-04-19T04:53:29;28.83;;;16.90;;
29812;SDS011;16707;48.106;11.548;2023-04-19T04:56:06;31.58;;;17.50;;
29812;SDS011;16707;48.106;11.548;2023-04-19T04:58:42;30.98;;;17.30;;
29812;SDS011;16707;48.106;11.548;2023-04-19T05:01:10;35.88;;;20.02;;
29812;SDS011;16707;48.106;11.548;2023-04-19T05:03:40;32.08;;;17.77;;
29812;SDS011;16707;48.106;11.548;2023-04-19T05:06:08;33.25;;;17.50;;
29812;SDS011;16707;48.106;11.548;2023-04-19T05:08:36;28.88;;;16.77;;
29812;SDS011;16707;48.106;11.548;2023-04-19T05:11:05;34.97;;;18.00;;
29812;SDS011;16707;48.106;11.548;2023-04-19T05:13:33;29.38;;;16.83;;
29812;SDS011;16707;48.106;11.548;2023-04-19T05:16:13;30.35;;;17.83;;
29812;SDS011;16707;48.106;11.548;2023-04-19T05:18:40;32.05;;;18.85;;
29812;SDS011;16707;48.106;11.548;2023-04-19T05:21:15;29.35;;;16.77;;
29812;SDS011;16707;48.106;11.548;2023-04-19T05:23:42;31.85;;;17.80;;
29812;SDS011;16707;48.106;11.548;2023-04-19T05:26:12;33.42;;;18.38;;
29812;SDS011;16707;48.106;11.548;2023-04-19T05:28:40;29.80;;;17.05;;
29812;SDS011;16707;48.106;11.548;2023-04-19T05:31:12;30.20;;;17.67;;
29812;SDS011;16707;48.106;11.548;2023-04-19T05:33:47;33.55;;;18.42;;
29812;SDS011;16707;48.106;11.548;2023-04-19T05:36:22;30.98;;;17.83;;
29812;SDS011;16707;48.106;11.548;2023-04-19T05:38:53;29.65;;;18.00;;
29812;SDS011;16707;48.106;11.548;2023-04-19T05:41:30;32.13;;;17.83;;
29812;SDS011;16707;48.106;11.548;2023-04-19T05:43:57;31.98;;;17.48;;
29812;SDS011;16707;48.106;11.548;2023-04-19T05:46:27;35.22;;;18.33;;
29812;SDS011;16707;48.106;11.548;2023-04-19T05:48:54;33.28;;;18.35;;
29812;SDS011;16707;48.106;11.548;2023-04-19T05:51:23;25.17;;;16.08;;
29812;SDS011;16707;48.106;11.548;2023-04-19T05:53:52;28.55;;;16.92;;
29812;SDS011;16707;48.106;11.548;2023-04-19T05:56:26;25.25;;;15.45;;
29812;SDS011;16707;48.106;11.548;2023-04-19T05:58:57;28.80;;;16.35;;
29812;SDS011;16707;48.106;11.548;2023-04-19T06:01:25;27.70;;;16.30;;
29812;SDS011;16707;48.106;11.548;2023-04-19T06:04:07;28.23;;;15.88;;
29812;SDS011;16707;48.106;11.548;2023-04-19T06:06:35;27.55;;;16.40;;
29812;SDS011;16707;48.106;11.548;2023-04-19T06:09:08;27.27;;;16.42;;
29812;SDS011;16707;48.106;11.548;2023-04-19T06:11:37;27.17;;;16.42;;
29812;SDS011;16707;48.106;11.548;2023-04-19T06:14:10;30.90;;;16.58;;
29812;SDS011;16707;48.106;11.548;2023-04-19T06:16:38;23.40;;;14.82;;
29812;SDS011;16707;48.106;11.548;2023-04-19T06:19:10;23.92;;;14.98;;
29812;SDS011;16707;48.106;11.548;2023-04-19T06:21:40;26.52;;;14.57;;
29812;SDS011;16707;48.106;11.548;2023-04-19T06:24:07;28.70;;;16.35;;
29812;SDS011;16707;48.106;11.548;2023-04-19T06:26:34;28.42;;;15.90;;
29812;SDS011;16707;48.106;11.548;2023-04-19T06:29:03;29.23;;;16.42;;
29812;SDS011;16707;48.106;11.548;2023-04-19T06:31:30;27.10;;;14.73;;
29812;SDS011;16707;48.106;11.548;2023-04-19T06:34:03;32.13;;;16.23;;
29812;SDS011;16707;48.106;11.548;2023-04-19T06:36:30;27.38;;;16.17;;
29812;SDS011;16707;48.106;11.548;2023-04-19T06:39:05;29.85;;;16.60;;
29812;SDS011;16707;48.106;11.548;2023-04-19T06:41:35;28.45;;;15.75;;
29812;SDS011;16707;48.106;11.548;2023-04-19T06:44:08;28.48;;;15.73;;
29812;SDS011;16707;48.106;11.548;2023-04-19T06:46:35;26.83;;;14.70;;
29812;SDS011;16707;48.106;11.548;2023-04-19T06:49:02;24.65;;;13.95;;
29812;SDS011;16707;48.106;11.548;2023-04-19T06:51:34;26.15;;;16.05;;
29812;SDS011;16707;48.106;11.548;2023-04-19T06:54:04;24.63;;;15.32;;
29812;SDS011;16707;48.106;11.548;2023-04-19T06:56:38;23.20;;;13.52;;
29812;SDS011;16707;48.106;11.548;2023-04-19T06:59:09;27.77;;;15.07;;
29812;SDS011;16707;48.106;11.548;2023-04-19T07:01:44;25.95;;;15.88;;
29812;SDS011;16707;48.106;11.548;2023-04-19T07:04:21;26.38;;;14.07;;
29812;SDS011;16707;48.106;11.548;2023-04-19T07:06:48;25.25;;;14.75;;
29812;SDS011;16707;48.106;11.548;2023-04-19T07:09:20;28.83;;;14.00;;
29812;SDS011;16707;48.106;11.548;2023-04-19T07:11:52;25.25;;;14.65;;
29812;SDS011;16707;48.106;11.548;2023-04-19T07:14:21;21.40;;;13.77;;
29812;SDS011;16707;48.106;11.548;2023-04-19T07:16:51;24.88;;;14.82;;
29812;SDS011;16707;48.106;11.548;2023-04-19T07:19:19;24.98;;;14.20;;
29812;SDS011;16707;48.106;11.548;2023-04-19T07:21:48;26.42;;;14.75;;
29812;SDS011;16707;48.106;11.548;2023-04-19T07:24:21;21.63;;;13.63;;
29812;SDS011;16707;48.106;11.548;2023-04-19T07:26:49;25.27;;;14.82;;
29812;SDS011;16707;48.106;11.548;2023-04-19T07:29:17;48.70;;;25.85;;
29812;SDS011;16707;48.106;11.548;2023-04-19T07:31:46;25.50;;;14.85;;
29812;SDS011;16707;48.106;11.548;2023-04-19T07:34:13;26.05;;;15.30;;
29812;SDS011;16707;48.106;11.548;2023-04-19T07:36:41;26.42;;;14.55;;
29812;SDS011;16707;48.106;11.548;2023-04-19T07:39:08;25.25;;;14.57;;
29812;SDS011;16707;48.106;11.548;2023-04-19T07:41:36;25.45;;;14.88;;
29812;SDS011;16707;48.106;11.548;2023-04-19T07:44:04;26.00;;;14.20;;
29812;SDS011;16707;48.106;11.548;2023-04-19T07:46:31;23.88;;;13.70;;
29812;SDS011;16707;48.106;11.548;2023-04-19T07:49:01;25.40;;;14.60;;
29812;SDS011;16707;48.106;11.548;2023-04-19T07:51:28;22.05;;;13.95;;
29812;SDS011;16707;48.106;11.548;2023-04-19T07:53:57;25.02;;;14.38;;
29812;SDS011;16707;48.106;11.548;2023-04-19T07:56:25;23.50;;;14.07;;
29812;SDS011;16707;48.106;11.548;2023-04-19T07:58:55;23.05;;;13.70;;
29812;SDS011;16707;48.106;11.548;2023-04-19T08:01:25;23.42;;;13.90;;
29812;SDS011;16707;48.106;11.548;2023-04-19T08:03:52;22.17;;;12.85;;
29812;SDS011;16707;48.106;11.548;2023-04-19T08:06:25;21.08;;;13.23;;
29812;SDS011;16707;48.106;11.548;2023-04-19T08:08:55;22.60;;;12.90;;
29812;SDS011;16707;48.106;11.548;2023-04-19T08:11:23;23.35;;;13.20;;
29812;SDS011;16707;48.106;11.548;2023-04-19T08:13:50;21.98;;;13.65;;
29812;SDS011;16707;48.106;11.548;2023-04-19T08:16:19;20.73;;;12.15;;
29812;SDS011;16707;48.106;11.548;2023-04-19T08:18:47;20.70;;;12.95;;
29812;SDS011;16707;48.106;11.548;2023-04-19T08:21:18;19.25;;;12.45;;
29812;SDS011;16707;48.106;11.548;2023-04-19T08:23:48;23.20;;;12.93;;
29812;SDS011;16707;48.106;11.548;2023-04-19T08:26:15;19.85;;;12.77;;
29812;SDS011;16707;48.106;11.548;2023-04-19T08:28:46;19.20;;;12.35;;
29812;SDS011;16707;48.106;11.548;2023-04-19T08:31:15;20.00;;;13.18;;
29812;SDS011;16707;48.106;11.548;2023-04-19T08:33:47;21.40;;;12.02;;
29812;SDS011;16707;48.106;11.548;2023-04-19T08:36:21;19.52;;;12.23;;
29812;SDS011;16707;48.106;11.548;2023-04-19T08:38:48;19.73;;;11.82;;
29812;SDS011;16707;48.106;11.548;2023-04-19T08:41:17;18.77;;;12.50;;
29812;SDS011;16707;48.106;11.548;2023-04-19T08:43:49;19.48;;;12.20;;
29812;SDS011;16707;48.106;11.548;2023-04-19T08:46:18;21.55;;;12.75;;
29812;SDS011;16707;48.106;11.548;2023-04-19T08:48:49;19.83;;;12.35;;
29812;SDS011;16707;48.106;11.548;2023-04-19T08:51:16;31.10;;;13.32;;
29812;SDS011;16707;48.106;11.548;2023-04-19T08:53:44;20.67;;;13.38;;
29812;SDS011;16707;48.106;11.548;2023-04-19T08:56:14;23.00;;;13.55;;
29812;SDS011;16707;48.106;11.548;2023-04-19T08:58:46;21.60;;;12.60;;
29812;SDS011;16707;48.106;11.548;2023-04-19T09:01:15;21.15;;;12.38;;
29812;SDS011;16707;48.106;11.548;2023-04-19T09:03:43;20.73;;;12.68;;
29812;SDS011;16707;48.106;11.548;2023-04-19T09:06:12;22.42;;;12.25;;
29812;SDS011;16707;48.106;11.548;2023-04-19T09:08:43;21.23;;;12.43;;
29812;SDS011;16707;48.106;11.548;2023-04-19T09:11:15;20.67;;;11.82;;
29812;SDS011;16707;48.106;11.548;2023-04-19T09:13:44;20.45;;;12.80;;
29812;SDS011;16707;48.106;11.548;2023-04-19T09:16:26;21.67;;;12.98;;
29812;SDS011;16707;48.106;11.548;2023-04-19T09:18:53;18.92;;;12.50;;
29812;SDS011;16707;48.106;11.548;2023-04-19T09:21:30;19.40;;;12.25;;
29812;SDS011;16707;48.106;11.548;2023-04-19T09:24:03;20.55;;;12.23;;
29812;SDS011;16707;48.106;11.548;2023-04-19T09:26:34;20.27;;;12.17;;
29812;SDS011;16707;48.106;11.548;2023-04-19T09:29:03;19.40;;;12.75;;
29812;SDS011;16707;48.106;11.548;2023-04-19T09:31:34;20.08;;;12.07;;
29812;SDS011;16707;48.106;11.548;2023-04-19T09:34:11;18.40;;;11.75;;
29812;SDS011;16707;48.106;11.548;2023-04-19T09:36:43;20.50;;;13.05;;
29812;SDS011;16707;48.106;11.548;2023-04-19T09:39:14;22.35;;;12.52;;
29812;SDS011;16707;48.106;11.548;2023-04-19T09:41:54;18.52;;;12.02;;
29812;SDS011;16707;48.106;11.548;2023-04-19T09:44:22;18.98;;;11.95;;
29812;SDS011;16707;48.106;11.548;2023-04-19T09:46:49;19.42;;;11.98;;
29812;SDS011;16707;48.106;11.548;2023-04-19T09:49:20;18.85;;;11.55;;
29812;SDS011;16707;48.106;11.548;2023-04-19T09:51:51;21.08;;;12.23;;
29812;SDS011;16707;48.106;11.548;2023-04-19T09:54:19;20.00;;;11.35;;
29812;SDS011;16707;48.106;11.548;2023-04-19T09:56:51;19.67;;;11.20;;
29812;SDS011;16707;48.106;11.548;2023-04-19T09:59:24;17.65;;;10.88;;
29812;SDS011;16707;48.106;11.548;2023-04-19T10:01:52;16.48;;;11.23;;
29812;SDS011;16707;48.106;11.548;2023-04-19T10:04:21;16.27;;;11.35;;
29812;SDS011;16707;48.106;11.548;2023-04-19T10:06:59;17.20;;;10.38;;
29812;SDS011;16707;48.106;11.548;2023-04-19T10:09:26;14.18;;;9.85;;
29812;SDS011;16707;48.106;11.548;2023-04-19T10:11:59;17.17;;;9.85;;
29812;SDS011;16707;48.106;11.548;2023-04-19T10:14:31;16.20;;;11.50;;
29812;SDS011;16707;48.106;11.548;2023-04-19T10:17:03;13.60;;;9.40;;
29812;SDS011;16707;48.106;11.548;2023-04-19T10:19:35;17.88;;;10.60;;
29812;SDS011;16707;48.106;11.548;2023-04-19T10:22:12;14.77;;;10.82;;
29812;SDS011;16707;48.106;11.548;2023-04-19T10:24:39;14.57;;;10.40;;
29812;SDS011;16707;48.106;11.548;2023-04-19T10:27:36;15.50;;;11.02;;
29812;SDS011;16707;48.106;11.548;2023-04-19T10:30:04;13.90;;;10.13;;
29812;SDS011;16707;48.106;11.548;2023-04-19T10:32:38;14.50;;;10.60;;
29812;SDS011;16707;48.106;11.548;2023-04-19T10:35:07;17.05;;;10.70;;
29812;SDS011;16707;48.106;11.548;2023-04-19T10:37:39;15.95;;;11.07;;
29812;SDS011;16707;48.106;11.548;2023-04-19T10:40:07;19.08;;;10.35;;
29812;SDS011;16707;48.106;11.548;2023-04-19T10:45:45;16.20;;;10.63;;
29812;SDS011;16707;48.106;11.548;2023-04-19T10:48:31;17.90;;;10.95;;
29812;SDS011;16707;48.106;11.548;2023-04-19T10:51:11;18.13;;;11.43;;
29812;SDS011;16707;48.106;11.548;2023-04-19T10:53:46;16.77;;;10.85;;
29812;SDS011;16707;48.106;11.548;2023-04-19T10:56:21;16.55;;;11.38;;
29812;SDS011;16707;48.106;11.548;2023-04-19T10:59:14;16.88;;;11.18;;
29812;SDS011;16707;48.106;11.548;2023-04-19T11:01:51;16.75;;;9.57;;
29812;SDS011;16707;48.106;11.548;2023-04-19T11:07:36;20.52;;;11.95;;
29812;SDS011;16707;48.106;11.548;2023-04-19T11:10:12;19.63;;;11.75;;
29812;SDS011;16707;48.106;11.548;2023-04-19T11:13:00;16.88;;;10.57;;
29812;SDS011;16707;48.106;11.548;2023-04-19T11:15:27;19.42;;;11.07;;
29812;SDS011;16707;48.106;11.548;2023-04-19T11:17:55;14.27;;;9.80;;
29812;SDS011;16707;48.106;11.548;2023-04-19T11:20:24;15.55;;;10.18;;
29812;SDS011;16707;48.106;11.548;2023-04-19T11:22:55;16.60;;;10.75;;
29812;SDS011;16707;48.106;11.548;2023-04-19T11:25:26;18.67;;;11.60;;
29812;SDS011;16707;48.106;11.548;2023-04-19T11:27:59;17.13;;;10.02;;
29812;SDS011;16707;48.106;11.548;2023-04-19T11:30:32;18.70;;;12.10;;
29812;SDS011;16707;48.106;11.548;2023-04-19T11:33:01;18.10;;;10.60;;
29812;SDS011;16707;48.106;11.548;2023-04-19T11:35:28;19.92;;;11.73;;
29812;SDS011;16707;48.106;11.548;2023-04-19T11:37:59;18.10;;;11.82;;
29812;SDS011;16707;48.106;11.548;2023-04-19T11:40:34;22.85;;;12.75;;
29812;SDS011;16707;48.106;11.548;2023-04-19T11:43:02;21.27;;;11.93;;
29812;SDS011;16707;48.106;11.548;2023-04-19T11:45:35;22.02;;;13.68;;
29812;SDS011;16707;48.106;11.548;2023-04-19T11:48:03;19.27;;;13.02;;
29812;SDS011;16707;48.106;11.548;2023-04-19T11:50:32;17.75;;;10.77;;
29812;SDS011;16707;48.106;11.548;2023-04-19T11:53:14;21.30;;;13.13;;
29812;SDS011;16707;48.106;11.548;2023-04-19T11:55:47;21.48;;;12.38;;
29812;SDS011;16707;48.106;11.548;2023-04-19T11:58:25;20.30;;;11.27;;
29812;SDS011;16707;48.106;11.548;2023-04-19T12:00:54;19.88;;;12.43;;
29812;SDS011;16707;48.106;11.548;2023-04-19T12:03:30;21.13;;;12.32;;
29812;SDS011;16707;48.106;11.548;2023-04-19T12:06:01;23.92;;;12.50;;
29812;SDS011;16707;48.106;11.548;2023-04-19T12:08:33;24.30;;;12.90;;
29812;SDS011;16707;48.106;11.548;2023-04-19T12:11:03;24.25;;;13.18;;
29812;SDS011;16707;48.106;11.548;2023-04-19T12:13:36;24.48;;;14.23;;
29812;SDS011;16707;48.106;11.548;2023-04-19T12:16:07;20.30;;;11.98;;
29812;SDS011;16707;48.106;11.548;2023-04-19T12:18:41;19.65;;;11.40;;
29812;SDS011;16707;48.106;11.548;2023-04-19T12:21:24;22.48;;;12.93;;
29812;SDS011;16707;48.106;11.548;2023-04-19T12:23:52;22.15;;;13.93;;
29812;SDS011;16707;48.106;11.548;2023-04-19T12:26:24;20.70;;;13.45;;
29812;SDS011;16707;48.106;11.548;2023-04-19T12:28:55;25.55;;;14.68;;
29812;SDS011;16707;48.106;11.548;2023-04-19T12:31:30;20.10;;;14.30;;
29812;SDS011;16707;48.106;11.548;2023-04-19T12:33:58;24.27;;;13.18;;
29812;SDS011;16707;48.106;11.548;2023-04-19T12:36:25;26.27;;;13.88;;
29812;SDS011;16707;48.106;11.548;2023-04-19T12:38:52;26.10;;;14.13;;
29812;SDS011;16707;48.106;11.548;2023-04-19T12:41:30;23.52;;;13.38;;
29812;SDS011;16707;48.106;11.548;2023-04-19T12:44:00;22.58;;;14.00;;
29812;SDS011;16707;48.106;11.548;2023-04-19T12:46:27;24.83;;;13.45;;
29812;SDS011;16707;48.106;11.548;2023-04-19T12:48:57;24.83;;;14.32;;
29812;SDS011;16707;48.106;11.548;2023-04-19T12:51:30;29.40;;;15.65;;
29812;SDS011;16707;48.106;11.548;2023-04-19T12:53:57;29.63;;;16.00;;
29812;SDS011;16707;48.106;11.548;2023-04-19T12:56:25;24.58;;;13.93;;
29812;SDS011;16707;48.106;11.548;2023-04-19T12:58:55;20.02;;;11.25;;
29812;SDS011;16707;48.106;11.548;2023-04-19T13:01:25;23.70;;;12.75;;
29812;SDS011;16707;48.106;11.548;2023-04-19T13:03:52;21.05;;;10.60;;
29812;SDS011;16707;48.106;11.548;2023-04-19T13:06:19;21.58;;;11.80;;
29812;SDS011;16707;48.106;11.548;2023-04-19T13:08:46;18.75;;;12.30;;
29812;SDS011;16707;48.106;11.548;2023-04-19T13:11:13;21.00;;;11.32;;
29812;SDS011;16707;48.106;11.548;2023-04-19T13:13:44;16.17;;;11.25;;
29812;SDS011;16707;48.106;11.548;2023-04-19T13:16:15;19.98;;;11.63;;
29812;SDS011;16707;48.106;11.548;2023-04-19T13:18:50;19.85;;;11.73;;
29812;SDS011;16707;48.106;11.548;2023-04-19T13:21:18;16.80;;;10.73;;
29812;SDS011;16707;48.106;11.548;2023-04-19T13:23:47;22.20;;;11.77;;
29812;SDS011;16707;48.106;11.548;2023-04-19T13:26:18;18.38;;;10.15;;
29812;SDS011;16707;48.106;11.548;2023-04-19T13:28:45;16.08;;;8.90;;
29812;SDS011;16707;48.106;11.548;2023-04-19T13:31:12;15.70;;;9.57;;
29812;SDS011;16707;48.106;11.548;2023-04-19T13:33:41;15.27;;;8.93;;
29812;SDS011;16707;48.106;11.548;2023-04-19T13:36:08;14.85;;;8.57;;
29812;SDS011;16707;48.106;11.548;2023-04-19T13:38:35;13.52;;;8.82;;
29812;SDS011;16707;48.106;11.548;2023-04-19T13:41:02;15.25;;;8.63;;
29812;SDS011;16707;48.106;11.548;2023-04-19T13:43:33;12.68;;;8.45;;
29812;SDS011;16707;48.106;11.548;2023-04-19T13:46:02;14.35;;;9.07;;
29812;SDS011;16707;48.106;11.548;2023-04-19T13:48:31;13.75;;;8.07;;
29812;SDS011;16707;48.106;11.548;2023-04-19T13:50:59;14.25;;;7.97;;
29812;SDS011;16707;48.106;11.548;2023-04-19T13:53:32;11.32;;;7.43;;
29812;SDS011;16707;48.106;11.548;2023-04-19T13:55:59;9.93;;;6.80;;
29812;SDS011;16707;48.106;11.548;2023-04-19T13:58:33;9.35;;;5.63;;
29812;SDS011;16707;48.106;11.548;2023-04-19T14:01:01;8.52;;;5.35;;
29812;SDS011;16707;48.106;11.548;2023-04-19T14:03:28;7.70;;;4.82;;
29812;SDS011;16707;48.106;11.548;2023-04-19T14:05:56;5.32;;;3.47;;
29812;SDS011;16707;48.106;11.548;2023-04-19T14:08:27;5.63;;;3.78;;
29812;SDS011;16707;48.106;11.548;2023-04-19T14:10:57;4.97;;;3.60;;
29812;SDS011;16707;48.106;11.548;2023-04-19T14:13:24;4.57;;;3.05;;
29812;SDS011;16707;48.106;11.548;2023-04-19T14:15:55;5.03;;;2.80;;
29812;SDS011;16707;48.106;11.548;2023-04-19T14:18:23;5.68;;;3.47;;
29812;SDS011;16707;48.106;11.548;2023-04-19T14:20:49;5.57;;;3.45;;
29812;SDS011;16707;48.106;11.548;2023-04-19T14:23:20;4.00;;;2.72;;
29812;SDS011;16707;48.106;11.548;2023-04-19T14:25:54;5.35;;;2.95;;
29812;SDS011;16707;48.106;11.548;2023-04-19T14:28:21;3.33;;;2.55;;
29812;SDS011;16707;48.106;11.548;2023-04-19T14:30:51;3.22;;;2.80;;
29812;SDS011;16707;48.106;11.548;2023-04-19T14:33:18;6.20;;;3.30;;
29812;SDS011;16707;48.106;11.548;2023-04-19T14:35:45;5.22;;;3.45;;
29812;SDS011;16707;48.106;11.548;2023-04-19T14:38:12;6.15;;;3.70;;
29812;SDS011;16707;48.106;11.548;2023-04-19T14:40:41;7.03;;;4.20;;
29812;SDS011;16707;48.106;11.548;2023-04-19T14:43:16;7.28;;;5.45;;
29812;SDS011;16707;48.106;11.548;2023-04-19T14:48:16;9.05;;;5.90;;
29812;SDS011;16707;48.106;11.548;2023-04-19T14:50:45;8.27;;;6.00;;
29812;SDS011;16707;48.106;11.548;2023-04-19T14:53:13;10.00;;;6.65;;
29812;SDS011;16707;48.106;11.548;2023-04-19T14:55:40;11.63;;;7.05;;
29812;SDS011;16707;48.106;11.548;2023-04-19T14:58:07;10.68;;;7.57;;
29812;SDS011;16707;48.106;11.548;2023-04-19T15:00:35;10.65;;;6.95;;
29812;SDS011;16707;48.106;11.548;2023-04-19T15:03:03;9.73;;;6.57;;
29812;SDS011;16707;48.106;11.548;2023-04-19T15:05:32;8.88;;;5.05;;
29812;SDS011;16707;48.106;11.548;2023-04-19T15:08:00;10.80;;;6.57;;
29812;SDS011;16707;48.106;11.548;2023-04-19T15:10:27;10.38;;;6.10;;
29812;SDS011;16707;48.106;11.548;2023-04-19T15:12:56;9.68;;;6.22;;
29812;SDS011;16707;48.106;11.548;2023-04-19T15:15:27;11.32;;;6.93;;
29812;SDS011;16707;48.106;11.548;2023-04-19T15:17:59;9.00;;;5.40;;
29812;SDS011;16707;48.106;11.548;2023-04-19T15:20:26;9.35;;;6.30;;
29812;SDS011;16707;48.106;11.548;2023-04-19T15:22:56;10.75;;;6.43;;
29812;SDS011;16707;48.106;11.548;2023-04-19T15:25:23;8.73;;;5.93;;
29812;SDS011;16707;48.106;11.548;2023-04-19T15:27:51;10.00;;;6.53;;
29812;SDS011;16707;48.106;11.548;2023-04-19T15:30:18;10.90;;;6.93;;
29812;SDS011;16707;48.106;11.548;2023-04-19T15:32:45;11.50;;;7.18;;
29812;SDS011;16707;48.106;11.548;2023-04-19T15:35:16;11.65;;;8.13;;
29812;SDS011;16707;48.106;11.548;2023-04-19T15:37:43;11.85;;;8.30;;
29812;SDS011;16707;48.106;11.548;2023-04-19T15:40:18;15.10;;;9.45;;
29812;SDS011;16707;48.106;11.548;2023-04-19T15:42:49;14.98;;;9.45;;
29812;SDS011;16707;48.106;11.548;2023-04-19T15:45:16;14.55;;;9.02;;
29812;SDS011;16707;48.106;11.548;2023-04-19T15:47:43;14.38;;;9.00;;
29812;SDS011;16707;48.106;11.548;2023-04-19T15:50:10;12.43;;;9.13;;
29812;SDS011;16707;48.106;11.548;2023-04-19T15:52:44;13.50;;;8.80;;
29812;SDS011;16707;48.106;11.548;2023-04-19T15:55:15;18.35;;;10.93;;
29812;SDS011;16707;48.106;11.548;2023-04-19T15:57:43;15.57;;;10.43;;
29812;SDS011;16707;48.106;11.548;2023-04-19T16:00:14;15.52;;;10.10;;
29812;SDS011;16707;48.106;11.548;2023-04-19T16:02:42;18.92;;;10.80;;
29812;SDS011;16707;48.106;11.548;2023-04-19T16:05:09;14.77;;;9.38;;
29812;SDS011;16707;48.106;11.548;2023-04-19T16:07:37;16.00;;;9.70;;
29812;SDS011;16707;48.106;11.548;2023-04-19T16:10:09;10.70;;;6.72;;
29812;SDS011;16707;48.106;11.548;2023-04-19T16:12:40;10.30;;;5.47;;
29812;SDS011;16707;48.106;11.548;2023-04-19T16:15:08;10.40;;;6.75;;
29812;SDS011;16707;48.106;11.548;2023-04-19T16:17:37;10.52;;;7.03;;